Bellwood, Illinois
Current Conditions -  °F | °C
As of 9:51 AM on Thursday 18 Dec 2014 (Local Time) from KORD Reporting Station
Broken Clouds Broken Clouds  
Wind Chill: 16°   Ceiling: 19000
Heat Index: 23°   Visibility: 10mi
Dew Point: 16°   Wind: 6mph
Humidity: 74%   Direction: 260°W
Pressure: 30.3"   Gusts: NA
Location:  41.88°N, 87.87°W
Report Text: KORD 181551Z 26005KT 10SM FEW022 BKN190 BKN250 M05/M09 A3030 RMK AO2 SLP272 T10501089
Loading
Personal Weather Stations






























Interactive Weather Map New forecast layout! Learn more

10-Day Weather Forecast

Advertisements
Track Severe Weather on mobile